Time;durP1;ratioP1;P1;durP2;ratioP2;P2;SDS_P1;SDS_P2;PMS_P1;PMS_P2;Temp;Humidity;BMP_temperature;BMP_pressure;BME280_temperature;BME280_humidity;BME280_pressure;Samples;Min_cycle;Max_cycle;Signal;HPM_P1;HPM_P2
2022/07/31 00:00:06;;;;;;;0.40;0.35;;;;;;;;;;5071621;28;20455;-82
2022/07/31 00:02:31;;;;;;;1.08;0.43;;;;;;;;;;5074456;28;20032;-80
2022/07/31 00:04:58;;;;;;;0.43;0.30;;;;;;;;;;5071200;28;20327;-83
2022/07/31 00:07:24;;;;;;;0.75;0.50;;;;;;;;;;5091404;28;20019;-81
2022/07/31 00:09:54;;;;;;;1.35;0.93;;;;;;;;;;5081387;28;20035;-81
2022/07/31 00:12:22;;;;;;;0.77;0.47;;;;;;;;;;5073138;28;20016;-80
2022/07/31 00:14:48;;;;;;;0.57;0.57;;;;;;;;;;5073719;28;20028;-82
2022/07/31 00:17:14;;;;;;;0.70;0.70;;;;;;;;;;5072610;28;20067;-82
2022/07/31 00:19:40;;;;;;;0.75;0.70;;;;;;;;;;5052005;28;20056;-81
2022/07/31 00:22:08;;;;;;;1.40;0.80;;;;;;;;;;5068678;28;20348;-82
2022/07/31 00:24:35;;;;;;;0.98;0.98;;;;;;;;;;5073993;28;20107;-82
2022/07/31 00:27:03;;;;;;;0.43;0.40;;;;;;;;;;5072977;28;20028;-83
2022/07/31 00:29:29;;;;;;;0.40;0.40;;;;;;;;;;5072722;28;20036;-83
2022/07/31 00:31:55;;;;;;;0.57;0.32;;;;;;;;;;5071787;28;20041;-84
2022/07/31 00:34:21;;;;;;;1.08;0.82;;;;;;;;;;5073486;28;20102;-82
2022/07/31 00:36:48;;;;;;;0.47;0.47;;;;;;;;;;5073038;28;20376;-81
2022/07/31 00:39:14;;;;;;;1.25;0.63;;;;;;;;;;5073066;28;20028;-80
2022/07/31 00:41:43;;;;;;;0.73;0.50;;;;;;;;;;5056173;28;20024;-80
2022/07/31 00:44:12;;;;;;;1.13;0.82;;;;;;;;;;5073335;28;20024;-79
2022/07/31 00:46:37;;;;;;;3.40;1.50;;;;;;;;;;5071496;28;20082;-80
2022/07/31 00:49:03;;;;;;;2.05;1.00;;;;;;;;;;5073583;28;20028;-82
2022/07/31 00:51:29;;;;;;;0.95;0.77;;;;;;;;;;5055444;28;20491;-82
2022/07/31 00:53:54;;;;;;;0.95;0.77;;;;;;;;;;5072621;28;20113;-82
2022/07/31 00:56:20;;;;;;;0.50;0.50;;;;;;;;;;5040768;28;20075;-82
2022/07/31 00:58:45;;;;;;;1.38;0.57;;;;;;;;;;5073344;28;20028;-82
2022/07/31 01:01:11;;;;;;;2.53;0.85;;;;;;;;;;5070209;28;20090;-82
2022/07/31 01:03:36;;;;;;;0.47;0.40;;;;;;;;;;5073434;28;20488;-82
2022/07/31 01:06:02;;;;;;;1.25;0.40;;;;;;;;;;5071300;28;20063;-82
2022/07/31 01:08:28;;;;;;;0.63;0.55;;;;;;;;;;5071299;28;20422;-81
2022/07/31 01:11:03;;;;;;;0.52;0.45;;;;;;;;;;5080115;28;20509;-81
2022/07/31 01:13:32;;;;;;;0.93;0.77;;;;;;;;;;5088874;28;20040;-82
2022/07/31 01:16:00;;;;;;;1.20;0.63;;;;;;;;;;5072840;28;20063;-81
2022/07/31 01:18:28;;;;;;;0.40;0.40;;;;;;;;;;5073089;28;20039;-81
2022/07/31 01:20:57;;;;;;;1.85;0.80;;;;;;;;;;5076244;28;20366;-81
2022/07/31 01:23:48;;;;;;;0.85;0.30;;;;;;;;;;5075549;28;20031;-81
2022/07/31 01:26:28;;;;;;;0.60;0.60;;;;;;;;;;5074496;28;20029;-82
2022/07/31 01:29:08;;;;;;;0.47;0.47;;;;;;;;;;5074887;28;20577;-80
2022/07/31 01:31:47;;;;;;;1.40;0.93;;;;;;;;;;5075112;28;20063;-81
2022/07/31 01:34:23;;;;;;;1.63;1.13;;;;;;;;;;5056138;28;20108;-81
2022/07/31 01:36:58;;;;;;;1.77;1.52;;;;;;;;;;5071601;28;20039;-80
2022/07/31 01:39:25;;;;;;;1.58;0.85;;;;;;;;;;5075603;28;20032;-81
2022/07/31 01:41:52;;;;;;;1.40;0.80;;;;;;;;;;5075423;28;20414;-81
2022/07/31 01:44:18;;;;;;;1.90;1.02;;;;;;;;;;5073547;28;20090;-81
2022/07/31 01:46:47;;;;;;;1.02;0.80;;;;;;;;;;5074710;28;20437;-82
2022/07/31 01:49:17;;;;;;;0.68;0.55;;;;;;;;;;5073865;28;20032;-81
2022/07/31 01:51:43;;;;;;;0.32;0.30;;;;;;;;;;5075317;28;20025;-79
2022/07/31 01:54:12;;;;;;;0.95;0.60;;;;;;;;;;5058601;28;20025;-77
2022/07/31 01:56:41;;;;;;;0.50;0.40;;;;;;;;;;5075776;28;20111;-78
2022/07/31 01:59:09;;;;;;;1.92;0.77;;;;;;;;;;5074088;28;20075;-78
2022/07/31 02:01:37;;;;;;;0.98;0.90;;;;;;;;;;5053420;28;20043;-78
2022/07/31 02:04:05;;;;;;;1.00;0.60;;;;;;;;;;5070542;28;20473;-78
2022/07/31 02:06:30;;;;;;;1.35;0.70;;;;;;;;;;5067285;28;20032;-79
2022/07/31 02:08:57;;;;;;;0.75;0.40;;;;;;;;;;5065585;28;20047;-78
2022/07/31 02:11:25;;;;;;;0.70;0.30;;;;;;;;;;5068247;28;20081;-77
2022/07/31 02:13:54;;;;;;;1.20;0.88;;;;;;;;;;5073245;28;20236;-78
2022/07/31 02:16:22;;;;;;;0.75;0.75;;;;;;;;;;5072869;28;20045;-78
2022/07/31 02:18:49;;;;;;;1.00;0.68;;;;;;;;;;5073947;28;20098;-78
2022/07/31 02:21:14;;;;;;;2.95;0.80;;;;;;;;;;5074443;28;20333;-78
2022/07/31 02:23:40;;;;;;;1.17;0.75;;;;;;;;;;5075015;28;20035;-79
2022/07/31 02:26:05;;;;;;;0.60;0.50;;;;;;;;;;5073300;28;20029;-80
2022/07/31 02:28:32;;;;;;;0.93;0.60;;;;;;;;;;5074623;28;20543;-82
2022/07/31 02:31:01;;;;;;;0.80;0.80;;;;;;;;;;5072442;28;20048;-81
2022/07/31 02:33:26;;;;;;;1.55;0.57;;;;;;;;;;5073635;28;20527;-81
2022/07/31 02:35:55;;;;;;;0.50;0.47;;;;;;;;;;5075115;28;20032;-82
2022/07/31 02:38:22;;;;;;;0.30;0.30;;;;;;;;;;5074331;28;20032;-81
2022/07/31 02:40:51;;;;;;;1.17;0.95;;;;;;;;;;5057387;28;20024;-80
2022/07/31 02:43:17;;;;;;;0.80;0.55;;;;;;;;;;5054533;28;20040;-82
2022/07/31 02:45:45;;;;;;;0.52;0.47;;;;;;;;;;5074428;28;20337;-81
2022/07/31 02:48:10;;;;;;;0.73;0.55;;;;;;;;;;5074461;28;20032;-82
2022/07/31 02:50:37;;;;;;;0.90;0.60;;;;;;;;;;5073778;28;20025;-81
2022/07/31 02:53:05;;;;;;;0.60;0.50;;;;;;;;;;5074083;28;20086;-81
2022/07/31 02:55:30;;;;;;;2.53;0.75;;;;;;;;;;5074612;28;20051;-81
2022/07/31 02:57:58;;;;;;;0.60;0.60;;;;;;;;;;5056117;28;20029;-81
2022/07/31 03:00:25;;;;;;;2.58;0.85;;;;;;;;;;5073142;28;20028;-80
2022/07/31 03:02:52;;;;;;;0.60;0.60;;;;;;;;;;5074248;28;20028;-80
2022/07/31 03:05:18;;;;;;;0.98;0.80;;;;;;;;;;5071958;28;20039;-82
2022/07/31 03:07:44;;;;;;;0.93;0.82;;;;;;;;;;5074047;28;20017;-81
2022/07/31 03:10:11;;;;;;;1.10;0.65;;;;;;;;;;5074255;28;20107;-81
2022/07/31 03:12:39;;;;;;;1.08;0.75;;;;;;;;;;5073559;28;20433;-81
2022/07/31 03:15:08;;;;;;;2.15;0.80;;;;;;;;;;5072997;28;20446;-81
2022/07/31 03:17:37;;;;;;;3.20;0.85;;;;;;;;;;5073807;28;20441;-80
2022/07/31 03:20:05;;;;;;;0.75;0.60;;;;;;;;;;5073776;28;20028;-82
2022/07/31 03:22:30;;;;;;;2.17;0.75;;;;;;;;;;5073547;28;20445;-81
2022/07/31 03:24:56;;;;;;;0.98;0.80;;;;;;;;;;5072066;28;20040;-81
2022/07/31 03:27:22;;;;;;;3.33;1.02;;;;;;;;;;5075258;28;20024;-81
2022/07/31 03:29:48;;;;;;;0.75;0.68;;;;;;;;;;5073019;28;20520;-81
2022/07/31 03:32:13;;;;;;;1.48;0.77;;;;;;;;;;5071746;28;20034;-81
2022/07/31 03:34:41;;;;;;;0.52;0.50;;;;;;;;;;5073505;28;20024;-81
2022/07/31 03:37:07;;;;;;;0.85;0.68;;;;;;;;;;5072754;28;20032;-80
2022/07/31 03:39:32;;;;;;;1.33;0.45;;;;;;;;;;5075795;28;20020;-81
2022/07/31 03:41:58;;;;;;;0.98;0.90;;;;;;;;;;5072702;28;20039;-81
2022/07/31 03:44:24;;;;;;;1.17;0.50;;;;;;;;;;5073014;28;20103;-79
2022/07/31 03:46:50;;;;;;;1.00;0.70;;;;;;;;;;5074230;28;20402;-81
2022/07/31 03:49:16;;;;;;;0.57;0.57;;;;;;;;;;5053591;28;20067;-79
2022/07/31 03:51:41;;;;;;;2.72;0.90;;;;;;;;;;5072988;28;20028;-81
2022/07/31 03:54:10;;;;;;;1.58;0.85;;;;;;;;;;5073092;28;20116;-81
2022/07/31 03:56:35;;;;;;;0.75;0.52;;;;;;;;;;5073248;28;20086;-80
2022/07/31 03:59:02;;;;;;;0.65;0.55;;;;;;;;;;5071732;28;20028;-80
2022/07/31 04:01:27;;;;;;;0.30;0.30;;;;;;;;;;5068491;28;20063;-79
2022/07/31 04:04:01;;;;;;;2.53;0.40;;;;;;;;;;5069518;28;21598;-80
2022/07/31 04:06:26;;;;;;;1.60;0.90;;;;;;;;;;5071742;28;20051;-80
2022/07/31 04:08:52;;;;;;;0.73;0.73;;;;;;;;;;5072461;28;20028;-79
2022/07/31 04:11:17;;;;;;;0.85;0.50;;;;;;;;;;5070535;28;20031;-80
2022/07/31 04:13:43;;;;;;;0.68;0.68;;;;;;;;;;5073558;28;20029;-80
2022/07/31 04:16:08;;;;;;;1.38;0.60;;;;;;;;;;5073872;28;20025;-78
2022/07/31 04:18:35;;;;;;;0.65;0.63;;;;;;;;;;5074093;28;20103;-81
2022/07/31 04:21:05;;;;;;;0.43;0.40;;;;;;;;;;5072237;28;20032;-81
2022/07/31 04:23:30;;;;;;;0.70;0.65;;;;;;;;;;5073943;28;20028;-81
2022/07/31 04:25:56;;;;;;;0.47;0.40;;;;;;;;;;5073325;28;20024;-80
2022/07/31 04:28:22;;;;;;;0.52;0.50;;;;;;;;;;5073004;28;20047;-78
2022/07/31 04:30:47;;;;;;;2.38;1.40;;;;;;;;;;5070064;28;20034;-81
2022/07/31 04:33:13;;;;;;;0.20;0.20;;;;;;;;;;5072473;28;20097;-80
2022/07/31 04:35:42;;;;;;;0.30;0.30;;;;;;;;;;5073845;28;20028;-81
2022/07/31 04:38:07;;;;;;;1.25;0.90;;;;;;;;;;5071333;28;20090;-80
2022/07/31 04:40:32;;;;;;;3.10;0.73;;;;;;;;;;5073425;28;20033;-79
2022/07/31 04:42:59;;;;;;;1.10;1.00;;;;;;;;;;5073370;28;20052;-81
2022/07/31 04:45:24;;;;;;;0.68;0.68;;;;;;;;;;5063584;28;20024;-79
2022/07/31 04:47:49;;;;;;;1.13;0.50;;;;;;;;;;5080088;28;20016;-78
2022/07/31 04:50:15;;;;;;;0.35;0.20;;;;;;;;;;5073829;28;20028;-78
2022/07/31 04:52:40;;;;;;;4.50;0.80;;;;;;;;;;5075097;28;20043;-79
2022/07/31 04:55:06;;;;;;;1.17;0.63;;;;;;;;;;5077148;28;20034;-82
2022/07/31 04:57:33;;;;;;;1.15;0.90;;;;;;;;;;5078037;28;20059;-81
2022/07/31 04:59:59;;;;;;;0.68;0.60;;;;;;;;;;5075470;28;20033;-82
2022/07/31 05:02:26;;;;;;;0.55;0.43;;;;;;;;;;5074360;28;20032;-78
2022/07/31 05:04:51;;;;;;;1.15;1.00;;;;;;;;;;5077032;28;20048;-80
2022/07/31 05:07:17;;;;;;;0.43;0.38;;;;;;;;;;5076978;28;20521;-81
2022/07/31 05:09:42;;;;;;;0.30;0.30;;;;;;;;;;5076032;28;20028;-79
2022/07/31 05:12:08;;;;;;;0.77;0.70;;;;;;;;;;5077585;28;20025;-80
2022/07/31 05:14:33;;;;;;;0.88;0.82;;;;;;;;;;5077477;28;20032;-80
2022/07/31 05:16:58;;;;;;;0.73;0.65;;;;;;;;;;5074675;28;20024;-80
2022/07/31 05:19:28;;;;;;;1.13;0.60;;;;;;;;;;5075345;28;20327;-79
2022/07/31 05:21:54;;;;;;;0.88;0.50;;;;;;;;;;5077859;28;20063;-79
2022/07/31 05:24:20;;;;;;;0.57;0.57;;;;;;;;;;5076765;28;20129;-80
2022/07/31 05:26:45;;;;;;;0.35;0.35;;;;;;;;;;5075308;28;20033;-80
2022/07/31 05:29:11;;;;;;;0.75;0.65;;;;;;;;;;5076830;28;20167;-80
2022/07/31 05:31:36;;;;;;;0.52;0.40;;;;;;;;;;5077513;28;20476;-81
2022/07/31 05:34:01;;;;;;;1.25;0.47;;;;;;;;;;5076357;28;20021;-80
2022/07/31 05:36:29;;;;;;;3.65;0.65;;;;;;;;;;5076383;28;20447;-78
2022/07/31 05:38:56;;;;;;;0.63;0.40;;;;;;;;;;5074675;28;20107;-81
2022/07/31 05:41:22;;;;;;;0.57;0.57;;;;;;;;;;5077048;28;20036;-79
2022/07/31 05:43:52;;;;;;;1.35;0.73;;;;;;;;;;5077147;28;20024;-81
2022/07/31 05:46:17;;;;;;;1.50;1.38;;;;;;;;;;5074862;28;20033;-80
2022/07/31 05:48:43;;;;;;;0.63;0.43;;;;;;;;;;5059245;28;20028;-80
2022/07/31 05:51:12;;;;;;;0.73;0.60;;;;;;;;;;5075217;28;20103;-80
2022/07/31 05:53:38;;;;;;;0.30;0.30;;;;;;;;;;5057616;28;20043;-80
2022/07/31 05:56:05;;;;;;;3.83;1.15;;;;;;;;;;5056260;28;20021;-80
2022/07/31 05:58:33;;;;;;;0.35;0.35;;;;;;;;;;5068679;28;20056;-82
2022/07/31 06:00:59;;;;;;;1.35;0.85;;;;;;;;;;5077135;28;20020;-81
2022/07/31 06:03:33;;;;;;;0.90;0.65;;;;;;;;;;5073952;28;20040;-80
2022/07/31 06:06:00;;;;;;;0.60;0.52;;;;;;;;;;5077058;28;20028;-83
2022/07/31 06:08:29;;;;;;;0.52;0.45;;;;;;;;;;5075770;28;20028;-79
2022/07/31 06:10:54;;;;;;;1.38;0.80;;;;;;;;;;5057324;28;20029;-83
2022/07/31 06:13:29;;;;;;;1.27;0.88;;;;;;;;;;5068036;28;20507;-82
2022/07/31 06:15:55;;;;;;;2.25;0.95;;;;;;;;;;5074913;28;20051;-82
2022/07/31 06:18:20;;;;;;;1.38;0.80;;;;;;;;;;5076988;28;20025;-81
2022/07/31 06:20:50;;;;;;;4.47;1.20;;;;;;;;;;5076181;28;20093;-81
2022/07/31 06:23:18;;;;;;;1.60;1.45;;;;;;;;;;5076764;28;20024;-80
2022/07/31 06:25:45;;;;;;;0.85;0.75;;;;;;;;;;5074937;28;20029;-80
2022/07/31 06:28:11;;;;;;;2.05;0.80;;;;;;;;;;5075528;28;20029;-80
2022/07/31 06:30:36;;;;;;;0.80;0.80;;;;;;;;;;5075655;28;20580;-79
2022/07/31 06:33:02;;;;;;;0.77;0.70;;;;;;;;;;5075463;28;20086;-80
2022/07/31 06:35:30;;;;;;;1.13;0.90;;;;;;;;;;5073019;28;20025;-81
2022/07/31 06:37:56;;;;;;;6.30;0.80;;;;;;;;;;5077282;28;20024;-81
2022/07/31 06:40:21;;;;;;;0.98;0.93;;;;;;;;;;5079333;28;20043;-80
2022/07/31 06:42:47;;;;;;;2.17;0.85;;;;;;;;;;5076270;28;20024;-80
2022/07/31 06:45:12;;;;;;;2.38;1.88;;;;;;;;;;5075504;28;20035;-81
2022/07/31 06:47:38;;;;;;;1.15;0.75;;;;;;;;;;5074224;28;20342;-80
2022/07/31 06:50:07;;;;;;;1.20;1.10;;;;;;;;;;5073979;28;20070;-80
2022/07/31 06:52:32;;;;;;;0.98;0.88;;;;;;;;;;5072749;28;20028;-79
2022/07/31 06:54:58;;;;;;;3.10;1.30;;;;;;;;;;5075858;28;20474;-81
2022/07/31 06:57:23;;;;;;;1.08;0.93;;;;;;;;;;5075679;28;20036;-79
2022/07/31 06:59:52;;;;;;;1.25;1.00;;;;;;;;;;5074751;28;20479;-80
2022/07/31 07:02:17;;;;;;;1.02;0.90;;;;;;;;;;5074498;28;20028;-79
2022/07/31 07:04:43;;;;;;;1.50;1.40;;;;;;;;;;5073553;28;20028;-78
2022/07/31 07:07:08;;;;;;;1.02;0.70;;;;;;;;;;5072643;28;20032;-78
2022/07/31 07:09:36;;;;;;;1.50;1.27;;;;;;;;;;5074265;28;20039;-80
2022/07/31 07:12:01;;;;;;;1.98;1.77;;;;;;;;;;5075521;28;20032;-81
2022/07/31 07:14:26;;;;;;;0.98;0.85;;;;;;;;;;5073177;28;20044;-80
2022/07/31 07:16:52;;;;;;;2.30;1.40;;;;;;;;;;5074388;28;20030;-80
2022/07/31 07:19:18;;;;;;;2.80;1.67;;;;;;;;;;5075258;28;20038;-81
2022/07/31 07:21:46;;;;;;;1.77;0.93;;;;;;;;;;5073229;28;20035;-78
2022/07/31 07:24:11;;;;;;;1.45;0.90;;;;;;;;;;5074657;28;20032;-80
2022/07/31 07:26:37;;;;;;;2.67;1.10;;;;;;;;;;5072310;28;20094;-79
2022/07/31 07:29:04;;;;;;;1.92;1.67;;;;;;;;;;5074681;28;20392;-81
2022/07/31 07:31:32;;;;;;;0.73;0.73;;;;;;;;;;5071923;28;20028;-80
2022/07/31 07:33:59;;;;;;;1.27;0.60;;;;;;;;;;5073269;28;20058;-80
2022/07/31 07:36:26;;;;;;;4.93;1.25;;;;;;;;;;5074113;28;20029;-79
2022/07/31 07:38:53;;;;;;;0.73;0.73;;;;;;;;;;5080034;28;20024;-80
2022/07/31 07:41:18;;;;;;;0.80;0.80;;;;;;;;;;5089934;28;20032;-81
2022/07/31 07:43:44;;;;;;;1.40;0.98;;;;;;;;;;5073659;28;20103;-79
2022/07/31 07:46:09;;;;;;;1.10;1.00;;;;;;;;;;5071998;28;20078;-80
2022/07/31 07:48:34;;;;;;;3.20;1.40;;;;;;;;;;5073522;28;20039;-80
2022/07/31 07:51:02;;;;;;;3.03;0.85;;;;;;;;;;5074683;28;20103;-80
2022/07/31 07:53:27;;;;;;;1.70;1.45;;;;;;;;;;5074557;28;20043;-81
2022/07/31 07:55:57;;;;;;;5.45;1.75;;;;;;;;;;5070343;28;20017;-80
2022/07/31 07:58:25;;;;;;;1.17;0.63;;;;;;;;;;5074832;28;20024;-80
2022/07/31 08:00:51;;;;;;;0.70;0.70;;;;;;;;;;5074887;28;20024;-83
2022/07/31 08:03:19;;;;;;;1.00;0.80;;;;;;;;;;5074395;28;20020;-83
2022/07/31 08:05:45;;;;;;;1.38;1.08;;;;;;;;;;5074637;28;20445;-81
2022/07/31 08:08:10;;;;;;;1.90;0.80;;;;;;;;;;5073893;28;20031;-82
2022/07/31 08:10:39;;;;;;;0.63;0.57;;;;;;;;;;5071625;28;20024;-85
2022/07/31 08:13:04;;;;;;;0.50;0.50;;;;;;;;;;5073664;28;20048;-79
2022/07/31 08:15:31;;;;;;;1.33;0.43;;;;;;;;;;5071325;28;20146;-82
2022/07/31 08:17:59;;;;;;;0.43;0.35;;;;;;;;;;5074773;28;20020;-82
2022/07/31 08:20:26;;;;;;;1.42;0.40;;;;;;;;;;5074006;28;20386;-82
2022/07/31 08:22:52;;;;;;;0.40;0.40;;;;;;;;;;5071991;28;20036;-81
2022/07/31 08:25:19;;;;;;;0.65;0.50;;;;;;;;;;5053352;28;20454;-82
2022/07/31 08:27:47;;;;;;;0.93;0.43;;;;;;;;;;5054217;28;20112;-80
2022/07/31 08:30:12;;;;;;;0.88;0.60;;;;;;;;;;5065346;28;20020;-82
2022/07/31 08:32:40;;;;;;;0.80;0.38;;;;;;;;;;5073728;28;20031;-83
2022/07/31 08:35:09;;;;;;;3.00;0.28;;;;;;;;;;5072389;28;20020;-79
2022/07/31 08:37:34;;;;;;;1.23;0.88;;;;;;;;;;5074247;28;20021;-82
2022/07/31 08:40:04;;;;;;;0.10;0.10;;;;;;;;;;5073648;28;20040;-82
2022/07/31 08:42:31;;;;;;;0.30;0.30;;;;;;;;;;5071737;28;20024;-77
2022/07/31 08:44:59;;;;;;;0.32;0.30;;;;;;;;;;5072553;28;20021;-82
2022/07/31 08:47:26;;;;;;;0.98;0.88;;;;;;;;;;5071555;28;20415;-84
2022/07/31 08:49:51;;;;;;;0.50;0.40;;;;;;;;;;5072768;28;20025;-82
2022/07/31 08:52:23;;;;;;;1.58;0.70;;;;;;;;;;5071707;28;20021;-83
2022/07/31 08:54:50;;;;;;;0.53;0.50;;;;;;;;;;5072778;28;20105;-81
2022/07/31 08:57:15;;;;;;;0.35;0.35;;;;;;;;;;5074176;28;20020;-86
2022/07/31 08:59:41;;;;;;;0.43;0.32;;;;;;;;;;5073077;28;20105;-82
2022/07/31 09:02:14;;;;;;;0.73;0.52;;;;;;;;;;5072866;28;20028;-84
2022/07/31 09:04:40;;;;;;;0.60;0.60;;;;;;;;;;5070817;28;20021;-82
2022/07/31 09:07:09;;;;;;;0.32;0.20;;;;;;;;;;5073079;28;20375;-81
2022/07/31 09:09:34;;;;;;;0.75;0.20;;;;;;;;;;5072955;28;20029;-84
2022/07/31 09:12:00;;;;;;;0.20;0.20;;;;;;;;;;5073812;28;20032;-82
2022/07/31 09:14:27;;;;;;;0.40;0.40;;;;;;;;;;5072394;28;20085;-83
2022/07/31 09:16:53;;;;;;;1.27;1.17;;;;;;;;;;5072362;28;20461;-85
2022/07/31 09:20:08;;;;;;;1.08;0.35;;;;;;;;;;5067411;28;20036;-81
2022/07/31 09:22:49;;;;;;;1.42;0.88;;;;;;;;;;5072359;28;20082;-84
2022/07/31 09:25:17;;;;;;;0.52;0.38;;;;;;;;;;5074423;28;20024;-84
2022/07/31 09:28:00;;;;;;;0.75;0.60;;;;;;;;;;5072670;28;20020;-85
2022/07/31 09:30:25;;;;;;;1.27;1.02;;;;;;;;;;5073246;28;20029;-83
2022/07/31 09:32:53;;;;;;;0.43;0.40;;;;;;;;;;5074057;28;20484;-84
2022/07/31 09:35:18;;;;;;;0.40;0.40;;;;;;;;;;5073078;28;20389;-84
2022/07/31 09:37:49;;;;;;;0.17;0.17;;;;;;;;;;5071473;28;20028;-83
2022/07/31 09:40:15;;;;;;;0.43;0.40;;;;;;;;;;5093978;28;20036;-80
2022/07/31 09:42:47;;;;;;;1.17;0.40;;;;;;;;;;5097619;28;20080;-82
2022/07/31 09:45:18;;;;;;;;;;;;;;;;;;5078293;28;20116;-88
2022/07/31 09:47:43;;;;;;;0.28;0.28;;;;;;;;;;5072771;28;19959;-88
2022/07/31 09:50:09;;;;;;;1.50;0.50;;;;;;;;;;5072382;28;20025;-86
2022/07/31 09:53:05;;;;;;;0.20;0.20;;;;;;;;;;5070063;28;20024;-86
2022/07/31 09:55:32;;;;;;;2.65;0.38;;;;;;;;;;5071325;28;20400;-88
2022/07/31 09:57:59;;;;;;;0.20;0.20;;;;;;;;;;5058220;28;20442;-85
2022/07/31 10:00:25;;;;;;;0.28;0.25;;;;;;;;;;5055321;28;20041;-86
2022/07/31 10:02:56;;;;;;;0.75;0.40;;;;;;;;;;5064786;28;20045;-89
2022/07/31 10:05:23;;;;;;;1.13;0.70;;;;;;;;;;5069293;28;20322;-89
2022/07/31 10:07:49;;;;;;;0.50;0.50;;;;;;;;;;5070317;28;20102;-90
2022/07/31 10:10:19;;;;;;;0.77;0.75;;;;;;;;;;5058573;28;20028;-89
2022/07/31 10:12:50;;;;;;;0.20;0.20;;;;;;;;;;5069139;28;20028;-88
2022/07/31 10:15:16;;;;;;;0.30;0.28;;;;;;;;;;5058751;28;20058;-87
2022/07/31 10:17:46;;;;;;;0.75;0.30;;;;;;;;;;5064306;28;20028;-83
2022/07/31 10:20:23;;;;;;;0.30;0.30;;;;;;;;;;5052521;28;20035;-86
2022/07/31 10:22:53;;;;;;;1.10;0.32;;;;;;;;;;5048373;28;20127;-86
2022/07/31 10:25:27;;;;;;;1.33;0.43;;;;;;;;;;5063562;28;20520;-81
2022/07/31 10:27:55;;;;;;;0.52;0.45;;;;;;;;;;5069535;28;20045;-82
2022/07/31 10:30:22;;;;;;;0.20;0.20;;;;;;;;;;5073261;28;20046;-86
2022/07/31 10:32:49;;;;;;;0.28;0.28;;;;;;;;;;5073200;28;20044;-85
2022/07/31 10:35:22;;;;;;;0.55;0.20;;;;;;;;;;5068307;28;20032;-85
2022/07/31 10:38:11;;;;;;;0.30;0.30;;;;;;;;;;5074921;28;20454;-89
2022/07/31 10:40:53;;;;;;;2.97;0.65;;;;;;;;;;5068819;28;20032;-84
2022/07/31 10:43:44;;;;;;;0.47;0.30;;;;;;;;;;5053174;28;20036;-84
2022/07/31 10:46:10;;;;;;;5.13;0.60;;;;;;;;;;5065470;28;20111;-85
2022/07/31 10:48:36;;;;;;;0.55;0.45;;;;;;;;;;5055144;28;20815;-84
2022/07/31 10:51:08;;;;;;;0.20;0.20;;;;;;;;;;5066746;28;20032;-83
2022/07/31 10:53:33;;;;;;;;;;;;;;;;;;5071276;28;20032;-83
2022/07/31 10:56:11;;;;;;;0.35;0.35;;;;;;;;;;5063644;28;19913;-86
2022/07/31 11:05:54;;;;;;;0.10;0.10;;;;;;;;;;5018205;28;20473;-85
2022/07/31 11:09:04;;;;;;;0.70;0.50;;;;;;;;;;5068795;28;20033;-82
2022/07/31 11:11:31;;;;;;;0.30;0.30;;;;;;;;;;4987597;28;20038;-80
2022/07/31 11:13:58;;;;;;;0.50;0.50;;;;;;;;;;4970949;28;20029;-80
2022/07/31 11:16:24;;;;;;;0.70;0.55;;;;;;;;;;4969680;28;20050;-84
2022/07/31 11:19:00;;;;;;;0.60;0.38;;;;;;;;;;4980891;28;20038;-81
2022/07/31 11:21:34;;;;;;;0.93;0.63;;;;;;;;;;4972390;28;20036;-81
2022/07/31 11:24:00;;;;;;;0.40;0.30;;;;;;;;;;4986387;28;20027;-82
2022/07/31 11:26:26;;;;;;;0.28;0.28;;;;;;;;;;4974234;28;20103;-81
2022/07/31 11:28:52;;;;;;;0.68;0.68;;;;;;;;;;4990542;28;20101;-80
2022/07/31 11:31:36;;;;;;;4.55;0.90;;;;;;;;;;4965393;28;20022;-79
2022/07/31 11:34:02;;;;;;;0.57;0.47;;;;;;;;;;4956927;28;20034;-81
2022/07/31 11:36:28;;;;;;;1.02;0.52;;;;;;;;;;4983731;28;20090;-80
2022/07/31 11:38:59;;;;;;;1.13;0.82;;;;;;;;;;4973512;28;20455;-80
2022/07/31 11:41:39;;;;;;;0.50;0.50;;;;;;;;;;4987695;28;20038;-81
2022/07/31 11:44:10;;;;;;;0.43;0.43;;;;;;;;;;4966692;28;20105;-82
2022/07/31 11:46:36;;;;;;;0.90;0.73;;;;;;;;;;4985563;28;20074;-81
2022/07/31 11:49:05;;;;;;;0.65;0.32;;;;;;;;;;5041223;28;20041;-82
2022/07/31 11:51:31;;;;;;;0.40;0.40;;;;;;;;;;5065850;28;20033;-80
2022/07/31 11:53:56;;;;;;;0.77;0.77;;;;;;;;;;5066829;28;20028;-82
2022/07/31 11:56:23;;;;;;;1.40;0.95;;;;;;;;;;5065396;28;20032;-82
2022/07/31 11:58:53;;;;;;;0.45;0.45;;;;;;;;;;5050115;28;20029;-82
2022/07/31 12:01:26;;;;;;;1.10;0.68;;;;;;;;;;5062378;28;20472;-83
2022/07/31 12:03:52;;;;;;;0.98;0.70;;;;;;;;;;5064157;28;20089;-81
2022/07/31 12:06:21;;;;;;;1.02;0.38;;;;;;;;;;5063520;28;20083;-81
2022/07/31 12:08:49;;;;;;;0.63;0.63;;;;;;;;;;5062367;28;20082;-81
2022/07/31 12:11:17;;;;;;;1.08;0.65;;;;;;;;;;5064829;28;20029;-83
2022/07/31 12:13:46;;;;;;;1.17;0.75;;;;;;;;;;5069220;28;20246;-83
2022/07/31 12:16:12;;;;;;;1.00;0.77;;;;;;;;;;5065360;28;20480;-84
2022/07/31 12:18:49;;;;;;;0.73;0.70;;;;;;;;;;5066714;28;20028;-83
2022/07/31 12:21:16;;;;;;;1.48;0.63;;;;;;;;;;5063925;28;20453;-83
2022/07/31 12:23:49;;;;;;;1.95;0.68;;;;;;;;;;5048743;28;20028;-84
2022/07/31 12:26:25;;;;;;;0.75;0.75;;;;;;;;;;5067789;28;20028;-84
2022/07/31 12:29:10;;;;;;;1.35;0.70;;;;;;;;;;5044744;28;20358;-83
2022/07/31 12:31:46;;;;;;;1.15;0.70;;;;;;;;;;5066957;28;20028;-81
2022/07/31 12:34:15;;;;;;;0.60;0.60;;;;;;;;;;5065839;28;20032;-80
2022/07/31 12:36:42;;;;;;;0.75;0.70;;;;;;;;;;5064642;28;20361;-84
2022/07/31 12:39:10;;;;;;;0.65;0.65;;;;;;;;;;5064888;28;20041;-80
2022/07/31 12:41:44;;;;;;;1.02;0.77;;;;;;;;;;5066511;28;20071;-81
2022/07/31 12:44:13;;;;;;;0.80;0.65;;;;;;;;;;5067877;28;20036;-82
2022/07/31 12:46:39;;;;;;;0.45;0.40;;;;;;;;;;5065641;28;20035;-80
2022/07/31 12:49:09;;;;;;;0.93;0.57;;;;;;;;;;5062562;28;20041;-81
2022/07/31 12:51:35;;;;;;;0.50;0.50;;;;;;;;;;5059735;28;20020;-83
2022/07/31 12:54:04;;;;;;;1.58;0.50;;;;;;;;;;5066405;28;20450;-83
2022/07/31 12:56:33;;;;;;;0.60;0.60;;;;;;;;;;5064683;28;20021;-80
2022/07/31 12:59:01;;;;;;;0.80;0.50;;;;;;;;;;5067478;28;20028;-80
2022/07/31 13:01:27;;;;;;;1.20;0.82;;;;;;;;;;5069724;28;20024;-79
2022/07/31 13:03:54;;;;;;;6.93;1.77;;;;;;;;;;5049915;28;20477;-79
2022/07/31 13:06:22;;;;;;;3.22;1.23;;;;;;;;;;5061910;28;20082;-82
2022/07/31 13:09:03;;;;;;;1.33;1.20;;;;;;;;;;5049816;28;20028;-81
2022/07/31 13:11:32;;;;;;;1.10;0.93;;;;;;;;;;5066353;28;20445;-83
2022/07/31 13:13:57;;;;;;;1.05;0.50;;;;;;;;;;5051047;28;20108;-81
2022/07/31 13:16:22;;;;;;;1.55;0.93;;;;;;;;;;5070957;28;20178;-82
2022/07/31 13:18:48;;;;;;;1.25;0.70;;;;;;;;;;5068128;28;20445;-82
2022/07/31 13:21:13;;;;;;;1.10;0.52;;;;;;;;;;5066232;28;20031;-82
2022/07/31 13:23:43;;;;;;;0.75;0.55;;;;;;;;;;5072197;28;20345;-82
2022/07/31 13:26:09;;;;;;;0.50;0.50;;;;;;;;;;5067057;28;20024;-83
2022/07/31 13:28:36;;;;;;;1.30;1.10;;;;;;;;;;5057909;28;20031;-83
2022/07/31 13:31:04;;;;;;;0.88;0.40;;;;;;;;;;5068867;28;20068;-82
2022/07/31 13:33:35;;;;;;;2.25;1.02;;;;;;;;;;5069566;28;20032;-83
2022/07/31 13:36:00;;;;;;;0.90;0.90;;;;;;;;;;5068581;28;20025;-84
2022/07/31 13:38:30;;;;;;;0.52;0.50;;;;;;;;;;5073951;28;20149;-84
2022/07/31 13:43:42;;;;;;;8.65;0.77;;;;;;;;;;5066333;28;20689;-84
2022/07/31 13:46:07;;;;;;;1.10;0.70;;;;;;;;;;5064368;28;20121;-77
2022/07/31 13:48:34;;;;;;;0.50;0.50;;;;;;;;;;5067044;28;20090;-77
2022/07/31 13:51:00;;;;;;;5.22;1.17;;;;;;;;;;5064063;28;20121;-80
2022/07/31 13:53:26;;;;;;;0.85;0.82;;;;;;;;;;5071884;28;20071;-81
2022/07/31 13:55:52;;;;;;;1.42;0.90;;;;;;;;;;5064319;28;20138;-83
2022/07/31 13:58:18;;;;;;;1.27;0.73;;;;;;;;;;5060037;28;20020;-85
2022/07/31 14:00:47;;;;;;;1.13;0.80;;;;;;;;;;5064324;28;20039;-81
2022/07/31 14:03:15;;;;;;;1.20;0.47;;;;;;;;;;5054103;28;20099;-84
2022/07/31 14:05:40;;;;;;;1.15;0.70;;;;;;;;;;5065357;28;20048;-81
2022/07/31 14:08:11;;;;;;;0.98;0.68;;;;;;;;;;5068921;28;20057;-78
2022/07/31 14:10:42;;;;;;;0.80;0.80;;;;;;;;;;5062738;28;20059;-82
2022/07/31 14:13:08;;;;;;;0.80;0.60;;;;;;;;;;5056054;28;20047;-80
2022/07/31 14:15:33;;;;;;;0.88;0.60;;;;;;;;;;5072310;28;20110;-80
2022/07/31 14:18:01;;;;;;;1.42;0.52;;;;;;;;;;5064799;28;20107;-80
2022/07/31 14:20:26;;;;;;;0.40;0.40;;;;;;;;;;5067695;28;20028;-80
2022/07/31 14:22:54;;;;;;;0.50;0.50;;;;;;;;;;5064591;28;20047;-79
2022/07/31 14:25:21;;;;;;;1.85;0.93;;;;;;;;;;5062734;28;20039;-82
2022/07/31 14:27:49;;;;;;;0.60;0.60;;;;;;;;;;5063911;28;20078;-81
2022/07/31 14:30:14;;;;;;;0.68;0.68;;;;;;;;;;5066016;28;20448;-78
2022/07/31 14:32:39;;;;;;;0.82;0.77;;;;;;;;;;5069365;28;20089;-80
2022/07/31 14:35:08;;;;;;;0.98;0.95;;;;;;;;;;5062914;28;20460;-80
2022/07/31 14:37:33;;;;;;;0.50;0.50;;;;;;;;;;5055709;28;20115;-79
2022/07/31 14:39:58;;;;;;;1.13;0.70;;;;;;;;;;5065428;28;20434;-82
2022/07/31 14:42:29;;;;;;;1.05;1.02;;;;;;;;;;5069192;28;20016;-80
2022/07/31 14:44:55;;;;;;;0.68;0.52;;;;;;;;;;5072834;28;20063;-80
2022/07/31 14:47:23;;;;;;;0.90;0.63;;;;;;;;;;5068018;28;20390;-80
2022/07/31 14:49:51;;;;;;;1.02;0.43;;;;;;;;;;5063594;28;20028;-81
2022/07/31 14:52:17;;;;;;;1.17;0.95;;;;;;;;;;5068255;28;20080;-81
2022/07/31 14:54:44;;;;;;;0.75;0.63;;;;;;;;;;5064101;28;20056;-80
2022/07/31 14:57:09;;;;;;;0.60;0.57;;;;;;;;;;5072975;28;20659;-81